sensor_id;sensor_type;location;lat;lon;timestamp;pressure;altitude;pressure_sealevel;temperature;humidity
75699;BME280;64313;51.018;13.742;2024-02-26T00:01:14;98409.09;;;5.10;70.38
75699;BME280;64313;51.018;13.742;2024-02-26T00:03:40;98407.66;;;5.08;71.23
75699;BME280;64313;51.018;13.742;2024-02-26T00:06:10;98402.59;;;5.06;70.52
75699;BME280;64313;51.018;13.742;2024-02-26T00:08:35;98413.38;;;5.05;70.25
75699;BME280;64313;51.018;13.742;2024-02-26T00:11:01;98414.19;;;5.05;69.96
75699;BME280;64313;51.018;13.742;2024-02-26T00:13:26;98405.66;;;5.03;71.68
75699;BME280;64313;51.018;13.742;2024-02-26T00:15:51;98409.50;;;5.01;71.45
75699;BME280;64313;51.018;13.742;2024-02-26T00:18:16;98414.78;;;5.01;70.36
75699;BME280;64313;51.018;13.742;2024-02-26T00:20:42;98403.84;;;4.97;70.89
75699;BME280;64313;51.018;13.742;2024-02-26T00:23:10;98407.69;;;4.95;70.54
75699;BME280;64313;51.018;13.742;2024-02-26T00:25:35;98405.03;;;4.95;70.44
75699;BME280;64313;51.018;13.742;2024-02-26T00:28:03;98406.06;;;4.94;70.21
75699;BME280;64313;51.018;13.742;2024-02-26T00:30:28;98400.97;;;4.92;70.58
75699;BME280;64313;51.018;13.742;2024-02-26T00:32:53;98399.56;;;4.89;70.92
75699;BME280;64313;51.018;13.742;2024-02-26T00:35:19;98402.22;;;4.89;70.26
75699;BME280;64313;51.018;13.742;2024-02-26T00:37:45;98400.78;;;4.87;70.84
75699;BME280;64313;51.018;13.742;2024-02-26T00:40:11;98395.69;;;4.85;70.24
75699;BME280;64313;51.018;13.742;2024-02-26T00:42:36;98403.63;;;4.85;71.40
75699;BME280;64313;51.018;13.742;2024-02-26T00:45:02;98389.81;;;4.83;71.48
75699;BME280;64313;51.018;13.742;2024-02-26T00:47:27;98382.69;;;4.84;71.42
75699;BME280;64313;51.018;13.742;2024-02-26T00:49:52;98382.06;;;4.82;71.86
75699;BME280;64313;51.018;13.742;2024-02-26T00:52:18;98382.06;;;4.82;70.55
75699;BME280;64313;51.018;13.742;2024-02-26T00:54:44;98382.28;;;4.80;71.01
75699;BME280;64313;51.018;13.742;2024-02-26T00:57:11;98380.66;;;4.79;71.09
75699;BME280;64313;51.018;13.742;2024-02-26T00:59:36;98381.69;;;4.78;71.21
75699;BME280;64313;51.018;13.742;2024-02-26T01:02:02;98380.06;;;4.77;71.92
75699;BME280;64313;51.018;13.742;2024-02-26T01:04:27;98380.06;;;4.77;72.16
75699;BME280;64313;51.018;13.742;2024-02-26T01:06:52;98382.88;;;4.76;72.18
75699;BME280;64313;51.018;13.742;2024-02-26T01:09:18;98375.97;;;4.75;72.12
75699;BME280;64313;51.018;13.742;2024-02-26T01:11:43;98366.66;;;4.72;72.65
75699;BME280;64313;51.018;13.742;2024-02-26T01:14:09;98372.13;;;4.71;71.69
75699;BME280;64313;51.018;13.742;2024-02-26T01:16:34;98374.78;;;4.71;72.20
75699;BME280;64313;51.018;13.742;2024-02-26T01:19:00;98363.59;;;4.69;72.36
75699;BME280;64313;51.018;13.742;2024-02-26T01:21:25;98361.97;;;4.68;71.18
75699;BME280;64313;51.018;13.742;2024-02-26T01:23:54;98365.03;;;4.65;72.06
75699;BME280;64313;51.018;13.742;2024-02-26T01:26:19;98368.06;;;4.61;72.53
75699;BME280;64313;51.018;13.742;2024-02-26T01:28:44;98361.16;;;4.60;71.72
75699;BME280;64313;51.018;13.742;2024-02-26T01:31:10;98358.72;;;4.59;72.66
75699;BME280;64313;51.018;13.742;2024-02-26T01:33:36;98351.19;;;4.56;72.71
75699;BME280;64313;51.018;13.742;2024-02-26T01:36:01;98355.66;;;4.55;72.66
75699;BME280;64313;51.018;13.742;2024-02-26T01:38:26;98348.75;;;4.54;72.41
75699;BME280;64313;51.018;13.742;2024-02-26T01:40:52;98347.34;;;4.52;72.85
75699;BME280;64313;51.018;13.742;2024-02-26T01:43:18;98343.28;;;4.49;73.26
75699;BME280;64313;51.018;13.742;2024-02-26T01:45:43;98347.34;;;4.52;72.03
75699;BME280;64313;51.018;13.742;2024-02-26T01:48:08;98336.16;;;4.50;72.37
75699;BME280;64313;51.018;13.742;2024-02-26T01:50:37;98342.66;;;4.47;73.14
75699;BME280;64313;51.018;13.742;2024-02-26T01:53:03;98342.06;;;4.45;72.96
75699;BME280;64313;51.018;13.742;2024-02-26T01:55:29;98323.97;;;4.42;72.97
75699;BME280;64313;51.018;13.742;2024-02-26T01:57:55;98332.09;;;4.41;73.13
75699;BME280;64313;51.018;13.742;2024-02-26T02:00:21;98326.22;;;4.39;73.20
75699;BME280;64313;51.018;13.742;2024-02-26T02:02:47;98324.56;;;4.38;72.94
75699;BME280;64313;51.018;13.742;2024-02-26T02:05:15;98322.16;;;4.36;73.06
75699;BME280;64313;51.018;13.742;2024-02-26T02:07:43;98311.00;;;4.34;73.51
75699;BME280;64313;51.018;13.742;2024-02-26T02:10:09;98320.09;;;4.31;73.47
75699;BME280;64313;51.018;13.742;2024-02-26T02:12:35;98320.09;;;4.31;73.57
75699;BME280;64313;51.018;13.742;2024-02-26T02:15:04;98323.97;;;4.29;73.12
75699;BME280;64313;51.018;13.742;2024-02-26T02:17:30;98317.88;;;4.28;72.65
75699;BME280;64313;51.018;13.742;2024-02-26T02:19:56;98318.09;;;4.27;73.04
75699;BME280;64313;51.018;13.742;2024-02-26T02:22:21;98315.44;;;4.27;72.98
75699;BME280;64313;51.018;13.742;2024-02-26T02:24:48;98315.66;;;4.25;73.84
75699;BME280;64313;51.018;13.742;2024-02-26T02:27:13;98312.38;;;4.23;73.77
75699;BME280;64313;51.018;13.742;2024-02-26T02:29:39;98312.38;;;4.23;73.54
75699;BME280;64313;51.018;13.742;2024-02-26T02:32:04;98324.78;;;4.23;73.52
75699;BME280;64313;51.018;13.742;2024-02-26T02:34:31;98312.59;;;4.22;74.42
75699;BME280;64313;51.018;13.742;2024-02-26T02:36:57;98311.56;;;4.23;74.15
75699;BME280;64313;51.018;13.742;2024-02-26T02:39:22;98312.38;;;4.23;73.48
75699;BME280;64313;51.018;13.742;2024-02-26T02:41:47;98309.16;;;4.21;73.64
75699;BME280;64313;51.018;13.742;2024-02-26T02:44:13;98311.56;;;4.23;73.38
75699;BME280;64313;51.018;13.742;2024-02-26T02:46:41;98302.03;;;4.22;73.83
75699;BME280;64313;51.018;13.742;2024-02-26T02:49:10;98304.06;;;4.20;73.66
75699;BME280;64313;51.018;13.742;2024-02-26T02:51:36;98306.91;;;4.18;74.00
75699;BME280;64313;51.018;13.742;2024-02-26T02:54:01;98309.53;;;4.18;73.54
75699;BME280;64313;51.018;13.742;2024-02-26T02:56:26;98317.66;;;4.17;73.71
75699;BME280;64313;51.018;13.742;2024-02-26T02:58:52;98315.44;;;4.14;73.04
75699;BME280;64313;51.018;13.742;2024-02-26T03:01:17;98316.44;;;4.13;73.31
75699;BME280;64313;51.018;13.742;2024-02-26T03:03:43;98321.09;;;4.11;73.50
75699;BME280;64313;51.018;13.742;2024-02-26T03:06:08;98323.34;;;4.07;74.30
75699;BME280;64313;51.018;13.742;2024-02-26T03:08:33;98312.97;;;4.05;74.24
75699;BME280;64313;51.018;13.742;2024-02-26T03:11:03;98311.34;;;4.04;74.40
75699;BME280;64313;51.018;13.742;2024-02-26T03:13:28;98326.34;;;4.04;74.20
75699;BME280;64313;51.018;13.742;2024-02-26T03:15:54;98316.22;;;4.01;74.08
75699;BME280;64313;51.018;13.742;2024-02-26T03:18:19;98317.25;;;4.00;74.27
75699;BME280;64313;51.018;13.742;2024-02-26T03:20:44;98306.88;;;3.98;74.10
75699;BME280;64313;51.018;13.742;2024-02-26T03:23:10;98316.59;;;3.98;73.83
75699;BME280;64313;51.018;13.742;2024-02-26T03:25:38;98312.34;;;3.97;73.65
75699;BME280;64313;51.018;13.742;2024-02-26T03:28:03;98322.09;;;3.96;74.13
75699;BME280;64313;51.018;13.742;2024-02-26T03:30:29;98322.28;;;3.95;74.33
75699;BME280;64313;51.018;13.742;2024-02-26T03:32:54;98332.84;;;3.95;74.17
75699;BME280;64313;51.018;13.742;2024-02-26T03:35:19;98332.03;;;3.94;73.70
75699;BME280;64313;51.018;13.742;2024-02-26T03:37:46;98332.22;;;3.93;74.39
75699;BME280;64313;51.018;13.742;2024-02-26T03:40:12;98341.94;;;3.92;73.85
75699;BME280;64313;51.018;13.742;2024-02-26T03:42:39;98342.16;;;3.91;74.38
75699;BME280;64313;51.018;13.742;2024-02-26T03:45:05;98340.75;;;3.88;73.62
75699;BME280;64313;51.018;13.742;2024-02-26T03:47:31;98344.19;;;3.89;73.39
75699;BME280;64313;51.018;13.742;2024-02-26T03:49:56;98346.00;;;3.88;74.22
75699;BME280;64313;51.018;13.742;2024-02-26T03:52:21;98346.22;;;3.87;73.76
75699;BME280;64313;51.018;13.742;2024-02-26T03:54:46;98334.81;;;3.86;74.06
75699;BME280;64313;51.018;13.742;2024-02-26T03:57:12;98335.03;;;3.85;74.21
75699;BME280;64313;51.018;13.742;2024-02-26T03:59:37;98342.94;;;3.85;74.33
75699;BME280;64313;51.018;13.742;2024-02-26T04:02:02;98349.03;;;3.85;73.55
75699;BME280;64313;51.018;13.742;2024-02-26T04:04:28;98351.66;;;3.85;74.65
75699;BME280;64313;51.018;13.742;2024-02-26T04:06:53;98347.41;;;3.84;73.76
75699;BME280;64313;51.018;13.742;2024-02-26T04:09:18;98350.03;;;3.84;73.25
75699;BME280;64313;51.018;13.742;2024-02-26T04:11:44;98356.34;;;3.83;74.08
75699;BME280;64313;51.018;13.742;2024-02-26T04:14:09;98359.38;;;3.80;74.21
75699;BME280;64313;51.018;13.742;2024-02-26T04:16:36;98349.00;;;3.78;73.72
75699;BME280;64313;51.018;13.742;2024-02-26T04:19:02;98356.31;;;3.76;74.35
75699;BME280;64313;51.018;13.742;2024-02-26T04:21:27;98356.50;;;3.75;73.75
75699;BME280;64313;51.018;13.742;2024-02-26T04:23:52;98353.06;;;3.74;74.05
75699;BME280;64313;51.018;13.742;2024-02-26T04:26:21;98349.78;;;3.72;74.07
75699;BME280;64313;51.018;13.742;2024-02-26T04:28:46;98350.59;;;3.73;72.88
75699;BME280;64313;51.018;13.742;2024-02-26T04:31:11;98357.91;;;3.71;73.53
75699;BME280;64313;51.018;13.742;2024-02-26T04:33:37;98347.38;;;3.71;73.19
75699;BME280;64313;51.018;13.742;2024-02-26T04:36:02;98348.56;;;3.68;74.25
75699;BME280;64313;51.018;13.742;2024-02-26T04:38:28;98345.13;;;3.68;74.40
75699;BME280;64313;51.018;13.742;2024-02-26T04:40:53;98355.84;;;3.66;74.42
75699;BME280;64313;51.018;13.742;2024-02-26T04:43:19;98354.22;;;3.65;74.25
75699;BME280;64313;51.018;13.742;2024-02-26T04:45:44;98350.78;;;3.65;73.94
75699;BME280;64313;51.018;13.742;2024-02-26T04:48:09;98358.69;;;3.65;74.42
75699;BME280;64313;51.018;13.742;2024-02-26T04:50:35;98368.63;;;3.63;74.06
75699;BME280;64313;51.018;13.742;2024-02-26T04:53:00;98364.38;;;3.62;73.81
75699;BME280;64313;51.018;13.742;2024-02-26T04:55:25;98366.19;;;3.61;74.38
75699;BME280;64313;51.018;13.742;2024-02-26T04:57:51;98365.56;;;3.59;73.53
75699;BME280;64313;51.018;13.742;2024-02-26T05:00:16;98362.91;;;3.59;74.03
75699;BME280;64313;51.018;13.742;2024-02-26T05:02:42;98369.00;;;3.60;73.17
75699;BME280;64313;51.018;13.742;2024-02-26T05:05:07;98368.41;;;3.58;74.33
75699;BME280;64313;51.018;13.742;2024-02-26T05:07:34;98371.84;;;3.58;74.06
75699;BME280;64313;51.018;13.742;2024-02-26T05:09:59;98373.88;;;3.56;74.45
75699;BME280;64313;51.018;13.742;2024-02-26T05:12:25;98378.34;;;3.56;73.77
75699;BME280;64313;51.018;13.742;2024-02-26T05:14:50;98382.16;;;3.53;74.25
75699;BME280;64313;51.018;13.742;2024-02-26T05:17:15;98387.44;;;3.53;74.63
75699;BME280;64313;51.018;13.742;2024-02-26T05:19:41;98386.00;;;3.50;74.32
75699;BME280;64313;51.018;13.742;2024-02-26T05:22:06;98384.38;;;3.49;74.73
75699;BME280;64313;51.018;13.742;2024-02-26T05:24:31;98388.03;;;3.48;74.33
75699;BME280;64313;51.018;13.742;2024-02-26T05:26:56;98390.03;;;3.46;74.40
75699;BME280;64313;51.018;13.742;2024-02-26T05:29:22;98390.03;;;3.46;74.48
75699;BME280;64313;51.018;13.742;2024-02-26T05:31:49;98390.84;;;3.47;73.94
75699;BME280;64313;51.018;13.742;2024-02-26T05:34:14;98393.66;;;3.45;75.07
75699;BME280;64313;51.018;13.742;2024-02-26T05:36:39;98392.06;;;3.44;74.49
75699;BME280;64313;51.018;13.742;2024-02-26T05:39:05;98389.78;;;3.41;74.75
75699;BME280;64313;51.018;13.742;2024-02-26T05:41:30;98385.53;;;3.40;74.93
75699;BME280;64313;51.018;13.742;2024-02-26T05:43:55;98389.19;;;3.39;74.75
75699;BME280;64313;51.018;13.742;2024-02-26T05:46:21;98391.81;;;3.39;75.00
75699;BME280;64313;51.018;13.742;2024-02-26T05:48:48;98398.09;;;3.38;75.69
75699;BME280;64313;51.018;13.742;2024-02-26T05:51:14;98396.47;;;3.37;75.77
75699;BME280;64313;51.018;13.742;2024-02-26T05:53:40;98395.66;;;3.37;75.80
75699;BME280;64313;51.018;13.742;2024-02-26T05:56:06;98399.31;;;3.36;76.14
75699;BME280;64313;51.018;13.742;2024-02-26T05:58:32;98401.13;;;3.35;75.79
75699;BME280;64313;51.018;13.742;2024-02-26T06:00:57;98403.56;;;3.37;75.76
75699;BME280;64313;51.018;13.742;2024-02-26T06:03:23;98398.28;;;3.37;75.95
75699;BME280;64313;51.018;13.742;2024-02-26T06:05:49;98394.84;;;3.36;76.14
75699;BME280;64313;51.018;13.742;2024-02-26T06:08:14;98397.28;;;3.38;75.39
75699;BME280;64313;51.018;13.742;2024-02-26T06:10:40;98403.38;;;3.38;75.78
75699;BME280;64313;51.018;13.742;2024-02-26T06:13:05;98402.56;;;3.38;75.53
75699;BME280;64313;51.018;13.742;2024-02-26T06:15:32;98408.63;;;3.38;76.15
75699;BME280;64313;51.018;13.742;2024-02-26T06:17:57;98410.25;;;3.39;76.13
75699;BME280;64313;51.018;13.742;2024-02-26T06:20:24;98406.59;;;3.40;76.33
75699;BME280;64313;51.018;13.742;2024-02-26T06:22:49;98412.69;;;3.41;75.70
75699;BME280;64313;51.018;13.742;2024-02-26T06:25:14;98403.59;;;3.43;76.14
75699;BME280;64313;51.018;13.742;2024-02-26T06:27:40;98408.47;;;3.46;75.80
75699;BME280;64313;51.018;13.742;2024-02-26T06:30:06;98417.84;;;3.49;75.89
75699;BME280;64313;51.018;13.742;2024-02-26T06:32:31;98415.59;;;3.52;76.69
75699;BME280;64313;51.018;13.742;2024-02-26T06:34:57;98423.13;;;3.56;76.38
75699;BME280;64313;51.018;13.742;2024-02-26T06:37:22;98413.81;;;3.60;76.62
75699;BME280;64313;51.018;13.742;2024-02-26T06:39:48;98416.69;;;3.65;76.42
75699;BME280;64313;51.018;13.742;2024-02-26T06:42:13;98410.03;;;3.69;76.53
75699;BME280;64313;51.018;13.742;2024-02-26T06:44:38;98412.91;;;3.74;76.82
75699;BME280;64313;51.018;13.742;2024-02-26T06:47:04;98412.50;;;3.77;76.67
75699;BME280;64313;51.018;13.742;2024-02-26T06:49:29;98408.25;;;3.83;76.59
75699;BME280;64313;51.018;13.742;2024-02-26T06:51:55;98406.88;;;3.87;76.51
75699;BME280;64313;51.018;13.742;2024-02-26T06:54:20;98399.38;;;3.90;76.36
75699;BME280;64313;51.018;13.742;2024-02-26T06:56:45;98406.69;;;3.95;75.67
75699;BME280;64313;51.018;13.742;2024-02-26T06:59:11;98399.19;;;3.98;76.36
75699;BME280;64313;51.018;13.742;2024-02-26T07:01:36;98400.44;;;4.02;75.91
75699;BME280;64313;51.018;13.742;2024-02-26T07:04:01;98400.84;;;4.06;76.40
75699;BME280;64313;51.018;13.742;2024-02-26T07:06:27;98413.44;;;4.11;76.27
75699;BME280;64313;51.018;13.742;2024-02-26T07:08:53;98412.84;;;4.15;76.28
75699;BME280;64313;51.018;13.742;2024-02-26T07:11:19;98416.53;;;4.21;76.67
75699;BME280;64313;51.018;13.742;2024-02-26T07:13:45;98407.00;;;4.26;76.32
75699;BME280;64313;51.018;13.742;2024-02-26T07:16:12;98415.94;;;4.32;76.65
75699;BME280;64313;51.018;13.742;2024-02-26T07:18:39;98408.22;;;4.37;76.43
75699;BME280;64313;51.018;13.742;2024-02-26T07:21:05;98404.19;;;4.41;76.23
75699;BME280;64313;51.018;13.742;2024-02-26T07:23:31;98404.59;;;4.45;76.25
75699;BME280;64313;51.018;13.742;2024-02-26T07:25:56;98408.44;;;4.49;76.35
75699;BME280;64313;51.018;13.742;2024-02-26T07:28:21;98403.59;;;4.52;76.30
75699;BME280;64313;51.018;13.742;2024-02-26T07:30:47;98405.63;;;4.57;76.24
75699;BME280;64313;51.018;13.742;2024-02-26T07:33:12;98411.31;;;4.60;75.38
75699;BME280;64313;51.018;13.742;2024-02-26T07:35:39;98410.91;;;4.63;75.53
75699;BME280;64313;51.018;13.742;2024-02-26T07:38:07;98407.88;;;4.67;75.61
75699;BME280;64313;51.018;13.742;2024-02-26T07:40:32;98414.56;;;4.69;75.39
75699;BME280;64313;51.018;13.742;2024-02-26T07:42:57;98407.28;;;4.71;75.54
75699;BME280;64313;51.018;13.742;2024-02-26T07:45:22;98409.50;;;4.74;75.48
75699;BME280;64313;51.018;13.742;2024-02-26T07:47:48;98419.47;;;4.79;75.34
75699;BME280;64313;51.018;13.742;2024-02-26T07:50:13;98420.50;;;4.84;75.50
75699;BME280;64313;51.018;13.742;2024-02-26T07:52:39;98417.44;;;4.87;75.71
75699;BME280;64313;51.018;13.742;2024-02-26T07:55:05;98417.66;;;4.93;75.80
75699;BME280;64313;51.018;13.742;2024-02-26T07:57:32;98414.41;;;4.97;75.53
75699;BME280;64313;51.018;13.742;2024-02-26T07:59:58;98416.22;;;5.03;75.96
75699;BME280;64313;51.018;13.742;2024-02-26T08:02:24;98413.59;;;5.10;75.71
75699;BME280;64313;51.018;13.742;2024-02-26T08:04:50;98408.47;;;5.15;75.31
75699;BME280;64313;51.018;13.742;2024-02-26T08:07:15;98414.78;;;5.21;75.33
75699;BME280;64313;51.018;13.742;2024-02-26T08:09:40;98407.84;;;5.26;75.31
75699;BME280;64313;51.018;13.742;2024-02-26T08:12:06;98414.97;;;5.32;74.84
75699;BME280;64313;51.018;13.742;2024-02-26T08:14:31;98413.56;;;5.36;75.13
75699;BME280;64313;51.018;13.742;2024-02-26T08:16:58;98415.38;;;5.42;75.14
75699;BME280;64313;51.018;13.742;2024-02-26T08:19:23;98419.84;;;5.49;74.93
75699;BME280;64313;51.018;13.742;2024-02-26T08:21:49;98424.09;;;5.56;74.97
75699;BME280;64313;51.018;13.742;2024-02-26T08:24:14;98422.25;;;5.63;74.84
75699;BME280;64313;51.018;13.742;2024-02-26T08:26:39;98421.41;;;5.69;73.60
75699;BME280;64313;51.018;13.742;2024-02-26T08:29:04;98420.16;;;5.79;74.54
75699;BME280;64313;51.018;13.742;2024-02-26T08:31:30;98422.78;;;5.85;73.93
75699;BME280;64313;51.018;13.742;2024-02-26T08:33:55;98421.78;;;5.93;74.17
75699;BME280;64313;51.018;13.742;2024-02-26T08:36:21;98428.88;;;5.99;73.32
75699;BME280;64313;51.018;13.742;2024-02-26T08:38:46;98424.38;;;6.06;73.78
75699;BME280;64313;51.018;13.742;2024-02-26T08:41:11;98433.09;;;6.13;73.83
75699;BME280;64313;51.018;13.742;2024-02-26T08:43:38;98430.41;;;6.20;73.22
75699;BME280;64313;51.018;13.742;2024-02-26T08:46:03;98430.78;;;6.23;72.92
75699;BME280;64313;51.018;13.742;2024-02-26T08:48:33;98431.56;;;6.31;73.46
75699;BME280;64313;51.018;13.742;2024-02-26T08:50:58;98427.25;;;6.36;72.89
75699;BME280;64313;51.018;13.742;2024-02-26T08:53:23;98429.88;;;6.43;72.84
75699;BME280;64313;51.018;13.742;2024-02-26T08:55:48;98439.22;;;6.52;73.98
75699;BME280;64313;51.018;13.742;2024-02-26T08:58:14;98436.53;;;6.59;73.46
75699;BME280;64313;51.018;13.742;2024-02-26T09:00:39;98431.41;;;6.64;73.18
75699;BME280;64313;51.018;13.742;2024-02-26T09:03:04;98427.91;;;6.70;73.21
75699;BME280;64313;51.018;13.742;2024-02-26T09:05:30;98431.50;;;6.75;72.04
75699;BME280;64313;51.018;13.742;2024-02-26T09:07:55;98426.16;;;6.82;72.80
75699;BME280;64313;51.018;13.742;2024-02-26T09:10:21;98425.09;;;6.90;72.55
75699;BME280;64313;51.018;13.742;2024-02-26T09:12:46;98418.09;;;6.95;72.32
75699;BME280;64313;51.018;13.742;2024-02-26T09:15:12;98416.25;;;7.02;72.10
75699;BME280;64313;51.018;13.742;2024-02-26T09:17:37;98421.25;;;7.11;71.92
75699;BME280;64313;51.018;13.742;2024-02-26T09:20:09;98417.53;;;7.18;71.75
75699;BME280;64313;51.018;13.742;2024-02-26T09:22:34;98417.47;;;7.25;72.08
75699;BME280;64313;51.018;13.742;2024-02-26T09:24:59;98417.41;;;7.31;71.42
75699;BME280;64313;51.018;13.742;2024-02-26T09:27:25;98416.53;;;7.38;71.75
75699;BME280;64313;51.018;13.742;2024-02-26T09:29:50;98414.63;;;7.45;72.11
75699;BME280;64313;51.018;13.742;2024-02-26T09:32:15;98413.75;;;7.51;72.23
75699;BME280;64313;51.018;13.742;2024-02-26T09:34:41;98426.13;;;7.57;71.59
75699;BME280;64313;51.018;13.742;2024-02-26T09:37:06;98424.22;;;7.64;71.41
75699;BME280;64313;51.018;13.742;2024-02-26T09:39:31;98428.22;;;7.73;70.62
75699;BME280;64313;51.018;13.742;2024-02-26T09:42:01;98426.31;;;7.80;71.33
75699;BME280;64313;51.018;13.742;2024-02-26T09:44:28;98427.63;;;7.90;70.84
75699;BME280;64313;51.018;13.742;2024-02-26T09:46:55;98422.47;;;7.95;70.12
75699;BME280;64313;51.018;13.742;2024-02-26T09:49:23;98431.16;;;8.02;69.90
75699;BME280;64313;51.018;13.742;2024-02-26T09:51:50;98426.00;;;8.07;69.24
75699;BME280;64313;51.018;13.742;2024-02-26T09:54:16;98436.75;;;8.12;68.62
75699;BME280;64313;51.018;13.742;2024-02-26T09:56:42;98426.25;;;8.17;68.97
75699;BME280;64313;51.018;13.742;2024-02-26T09:59:13;98437.03;;;8.22;68.91
75699;BME280;64313;51.018;13.742;2024-02-26T10:01:41;98431.41;;;8.30;69.10
75699;BME280;64313;51.018;13.742;2024-02-26T10:04:08;98437.69;;;8.36;68.45
75699;BME280;64313;51.018;13.742;2024-02-26T10:06:34;98444.53;;;8.44;68.47
75699;BME280;64313;51.018;13.742;2024-02-26T10:09:01;98440.78;;;8.51;68.25
75699;BME280;64313;51.018;13.742;2024-02-26T10:11:30;98457.88;;;8.55;67.40
75699;BME280;64313;51.018;13.742;2024-02-26T10:13:56;98454.31;;;8.61;67.38
75699;BME280;64313;51.018;13.742;2024-02-26T10:16:21;98453.66;;;8.66;67.82
75699;BME280;64313;51.018;13.742;2024-02-26T10:18:50;98447.44;;;8.72;66.83
75699;BME280;64313;51.018;13.742;2024-02-26T10:21:17;98443.88;;;8.78;67.19
75699;BME280;64313;51.018;13.742;2024-02-26T10:23:44;98447.69;;;8.82;67.08
75699;BME280;64313;51.018;13.742;2024-02-26T10:26:11;98442.50;;;8.87;66.51
75699;BME280;64313;51.018;13.742;2024-02-26T10:28:39;98442.63;;;8.92;66.53
75699;BME280;64313;51.018;13.742;2024-02-26T10:31:05;98445.41;;;8.98;66.34
75699;BME280;64313;51.018;13.742;2024-02-26T10:33:33;98440.00;;;9.04;66.28
75699;BME280;64313;51.018;13.742;2024-02-26T10:35:58;98435.59;;;9.10;66.05
75699;BME280;64313;51.018;13.742;2024-02-26T10:38:24;98435.75;;;9.15;65.75
75699;BME280;64313;51.018;13.742;2024-02-26T10:40:49;98433.19;;;9.20;66.01
75699;BME280;64313;51.018;13.742;2024-02-26T10:43:14;98437.00;;;9.24;64.53
75699;BME280;64313;51.018;13.742;2024-02-26T10:45:42;98449.63;;;9.29;65.01
75699;BME280;64313;51.018;13.742;2024-02-26T10:48:13;98451.56;;;9.33;64.32
75699;BME280;64313;51.018;13.742;2024-02-26T10:50:39;98443.16;;;9.36;64.18
75699;BME280;64313;51.018;13.742;2024-02-26T10:53:13;98448.00;;;9.39;63.69
75699;BME280;64313;51.018;13.742;2024-02-26T10:55:42;98444.41;;;9.45;63.69
75699;BME280;64313;51.018;13.742;2024-02-26T10:58:08;98444.53;;;9.50;63.89
75699;BME280;64313;51.018;13.742;2024-02-26T11:00:35;98450.22;;;9.54;64.13
75699;BME280;64313;51.018;13.742;2024-02-26T11:07:03;98450.66;;;9.63;62.94
75699;BME280;64313;51.018;13.742;2024-02-26T11:09:30;98443.25;;;9.65;62.69
75699;BME280;64313;51.018;13.742;2024-02-26T11:11:57;98447.06;;;9.69;62.91
75699;BME280;64313;51.018;13.742;2024-02-26T11:14:23;98442.91;;;9.73;63.33
75699;BME280;64313;51.018;13.742;2024-02-26T11:16:52;98438.97;;;9.75;62.48
75699;BME280;64313;51.018;13.742;2024-02-26T11:19:20;98436.88;;;9.77;62.57
75699;BME280;64313;51.018;13.742;2024-02-26T11:21:46;98440.94;;;9.80;61.73
75699;BME280;64313;51.018;13.742;2024-02-26T11:24:12;98434.31;;;9.83;62.00
75699;BME280;64313;51.018;13.742;2024-02-26T11:27:01;98433.28;;;9.84;62.75
75699;BME280;64313;51.018;13.742;2024-02-26T11:32:10;98438.34;;;9.85;61.96
75699;BME280;64313;51.018;13.742;2024-02-26T11:34:45;98434.44;;;9.88;61.95
75699;BME280;64313;51.018;13.742;2024-02-26T11:37:16;98438.47;;;9.90;62.67
75699;BME280;64313;51.018;13.742;2024-02-26T11:39:45;98440.91;;;9.92;61.73
75699;BME280;64313;51.018;13.742;2024-02-26T11:42:14;98433.75;;;9.92;62.34
75699;BME280;64313;51.018;13.742;2024-02-26T11:44:39;98431.41;;;9.96;62.13
75699;BME280;64313;51.018;13.742;2024-02-26T11:49:35;98431.75;;;9.99;61.58
75699;BME280;64313;51.018;13.742;2024-02-26T11:52:05;98433.94;;;10.02;61.82
75699;BME280;64313;51.018;13.742;2024-02-26T11:54:54;98427.34;;;10.05;61.51
75699;BME280;64313;51.018;13.742;2024-02-26T12:00:14;98429.28;;;10.10;61.05
75699;BME280;64313;51.018;13.742;2024-02-26T12:02:46;98424.53;;;10.12;61.40
75699;BME280;64313;51.018;13.742;2024-02-26T12:05:17;98425.34;;;10.12;60.59
75699;BME280;64313;51.018;13.742;2024-02-26T12:07:47;98433.34;;;10.12;60.82
75699;BME280;64313;51.018;13.742;2024-02-26T12:12:45;98441.53;;;10.11;60.11
75699;BME280;64313;51.018;13.742;2024-02-26T12:15:10;98442.84;;;10.08;60.75
75699;BME280;64313;51.018;13.742;2024-02-26T12:17:37;98444.69;;;10.08;60.45
75699;BME280;64313;51.018;13.742;2024-02-26T12:20:14;98448.66;;;10.05;60.73
75699;BME280;64313;51.018;13.742;2024-02-26T12:22:39;98446.78;;;10.06;60.77
75699;BME280;64313;51.018;13.742;2024-02-26T12:25:06;98452.56;;;10.02;60.99
75699;BME280;64313;51.018;13.742;2024-02-26T12:27:31;98452.81;;;10.01;60.53
75699;BME280;64313;51.018;13.742;2024-02-26T12:29:56;98454.91;;;9.99;60.53
75699;BME280;64313;51.018;13.742;2024-02-26T12:32:23;98460.25;;;9.99;60.54
75699;BME280;64313;51.018;13.742;2024-02-26T12:34:48;98456.97;;;9.97;61.09
75699;BME280;64313;51.018;13.742;2024-02-26T12:37:16;98447.38;;;9.96;60.93
75699;BME280;64313;51.018;13.742;2024-02-26T12:39:41;98449.22;;;9.95;60.55
75699;BME280;64313;51.018;13.742;2024-02-26T12:42:07;98448.66;;;9.93;60.43
75699;BME280;64313;51.018;13.742;2024-02-26T12:44:32;98446.25;;;9.92;60.72
75699;BME280;64313;51.018;13.742;2024-02-26T12:47:02;98448.91;;;9.92;60.04
75699;BME280;64313;51.018;13.742;2024-02-26T12:49:30;98446.47;;;9.90;60.62
75699;BME280;64313;51.018;13.742;2024-02-26T12:51:55;98450.75;;;9.91;61.20
75699;BME280;64313;51.018;13.742;2024-02-26T12:54:30;98447.50;;;9.89;61.37
75699;BME280;64313;51.018;13.742;2024-02-26T12:56:57;98452.84;;;9.89;61.60
75699;BME280;64313;51.018;13.742;2024-02-26T12:59:23;98445.91;;;9.88;61.38
75699;BME280;64313;51.018;13.742;2024-02-26T13:01:49;98452.25;;;9.87;61.51
75699;BME280;64313;51.018;13.742;2024-02-26T13:04:15;98454.94;;;9.87;60.89
75699;BME280;64313;51.018;13.742;2024-02-26T13:06:40;98454.34;;;9.85;60.87
75699;BME280;64313;51.018;13.742;2024-02-26T13:09:05;98457.84;;;9.86;60.39